createdAt,value
2022-12-28T00:01:26.311Z,61.46
2022-12-28T00:03:54.106Z,62.12
2022-12-28T00:06:22.642Z,62.45
2022-12-28T00:08:57.480Z,62.52
2022-12-28T00:11:30.404Z,62.51
2022-12-28T00:14:00.188Z,62.47
2022-12-28T00:16:35.318Z,61.97
2022-12-28T00:19:07.679Z,62.46
2022-12-28T00:21:35.439Z,62.19
2022-12-28T00:24:03.112Z,63.04
2022-12-28T00:26:31.653Z,62.72
2022-12-28T00:29:04.760Z,62.83
2022-12-28T00:31:35.915Z,62.49
2022-12-28T00:34:04.014Z,62.92
2022-12-28T00:37:09.108Z,62.75
2022-12-28T00:39:19.945Z,62.95
2022-12-28T00:41:47.454Z,62.90
2022-12-28T00:44:14.838Z,62.61
2022-12-28T00:46:42.558Z,62.92
2022-12-28T00:49:09.921Z,62.70
2022-12-28T00:51:37.269Z,63.24
2022-12-28T00:54:04.965Z,62.07
2022-12-28T00:56:32.351Z,61.28
2022-12-28T00:58:59.847Z,62.33
2022-12-28T01:01:27.861Z,62.53
2022-12-28T01:03:56.895Z,62.10
2022-12-28T01:06:25.655Z,62.78
2022-12-28T01:08:53.313Z,62.40
2022-12-28T01:11:27.842Z,62.78
2022-12-28T01:13:57.455Z,62.89
2022-12-28T01:16:30.467Z,63.23
2022-12-28T01:18:59.270Z,62.68
2022-12-28T01:21:28.382Z,62.97
2022-12-28T01:23:57.348Z,63.50
2022-12-28T01:26:25.525Z,63.68
2022-12-28T01:28:52.922Z,63.38
2022-12-28T01:31:20.602Z,63.50
2022-12-28T01:33:48.314Z,63.54
2022-12-28T01:36:16.690Z,63.25
2022-12-28T01:38:44.538Z,62.72
2022-12-28T01:41:16.639Z,62.61
2022-12-28T01:43:47.317Z,62.14
2022-12-28T01:46:25.835Z,62.31
2022-12-28T01:49:05.417Z,63.12
2022-12-28T01:51:44.615Z,62.56
2022-12-28T01:54:12.042Z,61.82
2022-12-28T01:56:41.116Z,61.82
2022-12-28T01:59:08.488Z,62.51
2022-12-28T02:01:37.040Z,62.55
2022-12-28T02:04:04.868Z,63.16
2022-12-28T02:06:32.191Z,62.88
2022-12-28T02:09:18.151Z,62.74
2022-12-28T02:11:45.776Z,62.09
2022-12-28T02:14:13.302Z,63.83
2022-12-28T02:16:42.944Z,63.87
2022-12-28T02:19:12.178Z,63.81
2022-12-28T02:22:19.217Z,63.36
2022-12-28T02:25:12.731Z,63.56
2022-12-28T02:27:50.005Z,63.82
2022-12-28T02:30:17.503Z,63.64
2022-12-28T02:32:44.648Z,63.62
2022-12-28T02:35:27.121Z,63.72
2022-12-28T02:37:57.593Z,63.15
2022-12-28T02:40:31.614Z,63.23
2022-12-28T02:42:59.224Z,63.53
2022-12-28T02:45:56.602Z,63.25
2022-12-28T02:48:42.999Z,62.89
2022-12-28T02:51:28.549Z,63.76
2022-12-28T02:54:09.095Z,64.05
2022-12-28T02:56:46.974Z,64.03
2022-12-28T02:59:40.675Z,63.94
2022-12-28T03:02:33.439Z,63.68
2022-12-28T03:05:14.942Z,64.13
2022-12-28T03:08:12.218Z,64.79
2022-12-28T03:10:45.446Z,64.61
2022-12-28T03:13:43.811Z,64.50
2022-12-28T03:16:55.848Z,64.30
2022-12-28T03:19:43.608Z,64.40
2022-12-28T03:22:29.822Z,64.05
2022-12-28T03:25:21.016Z,64.16
2022-12-28T03:28:08.464Z,64.44
2022-12-28T03:30:55.327Z,65.05
2022-12-28T03:33:23.151Z,64.79
2022-12-28T03:35:52.977Z,64.65
2022-12-28T03:38:27.603Z,64.51
2022-12-28T03:41:08.941Z,64.75
2022-12-28T03:43:43.725Z,64.59
2022-12-28T03:46:21.229Z,64.20
2022-12-28T03:48:49.137Z,64.23
2022-12-28T03:51:19.763Z,64.00
2022-12-28T03:53:48.014Z,64.23
2022-12-28T03:56:19.341Z,64.25
2022-12-28T03:58:47.202Z,64.92
2022-12-28T04:01:15.164Z,63.78
2022-12-28T04:03:43.748Z,64.03
2022-12-28T04:06:20.402Z,64.07
2022-12-28T04:08:48.043Z,64.30
2022-12-28T04:11:15.554Z,64.42
2022-12-28T04:13:43.314Z,64.69
2022-12-28T04:16:12.544Z,64.77
2022-12-28T04:18:40.378Z,64.96
2022-12-28T04:21:08.863Z,64.71
2022-12-28T04:23:36.683Z,64.30
2022-12-28T04:26:06.974Z,64.17
2022-12-28T04:28:34.465Z,64.58
2022-12-28T04:31:05.606Z,64.38
2022-12-28T04:33:38.790Z,64.13
2022-12-28T04:36:07.581Z,62.88
2022-12-28T04:38:35.433Z,62.83
2022-12-28T04:41:02.890Z,63.26
2022-12-28T04:43:31.120Z,63.82
2022-12-28T04:45:59.072Z,63.94
2022-12-28T04:48:26.596Z,64.12
2022-12-28T04:50:54.368Z,64.44
2022-12-28T04:53:21.809Z,65.09
2022-12-28T04:55:49.193Z,64.84
2022-12-28T04:58:16.868Z,63.89
2022-12-28T05:00:44.301Z,64.25
2022-12-28T05:03:11.746Z,64.00
2022-12-28T05:05:40.482Z,64.19
2022-12-28T05:08:07.869Z,63.81
2022-12-28T05:10:35.357Z,64.64
2022-12-28T05:13:03.039Z,63.10
2022-12-28T05:15:30.396Z,63.44
2022-12-28T05:17:57.734Z,63.83
2022-12-28T05:20:25.368Z,64.74
2022-12-28T05:22:52.698Z,64.69
2022-12-28T05:25:20.019Z,64.90
2022-12-28T05:27:47.681Z,64.66
2022-12-28T05:30:15.081Z,64.41
2022-12-28T05:32:42.449Z,64.34
2022-12-28T05:35:10.096Z,64.68
2022-12-28T05:37:37.463Z,64.86
2022-12-28T05:40:05.312Z,64.65
2022-12-28T05:42:32.970Z,65.04
2022-12-28T05:45:00.338Z,64.76
2022-12-28T05:47:27.674Z,62.74
2022-12-28T05:49:55.348Z,63.68
2022-12-28T05:52:22.671Z,64.52
2022-12-28T05:54:50.236Z,64.77
2022-12-28T05:57:17.915Z,64.51
2022-12-28T05:59:45.293Z,64.59
2022-12-28T06:02:12.796Z,64.25
2022-12-28T06:04:41.260Z,64.29
2022-12-28T06:07:08.620Z,64.39
2022-12-28T06:09:35.984Z,64.15
2022-12-28T06:12:04.850Z,64.13
2022-12-28T06:14:32.209Z,64.38
2022-12-28T06:16:59.623Z,64.44
2022-12-28T06:19:27.294Z,63.68
2022-12-28T06:21:54.654Z,63.40
2022-12-28T06:24:21.994Z,63.46
2022-12-28T06:26:51.255Z,63.67
2022-12-28T06:29:18.851Z,62.99
2022-12-28T06:31:51.206Z,63.78
2022-12-28T06:34:18.898Z,63.88
2022-12-28T06:36:46.327Z,64.00
2022-12-28T06:39:14.316Z,63.63
2022-12-28T06:41:42.142Z,63.37
2022-12-28T06:44:10.487Z,63.44
2022-12-28T06:46:38.868Z,63.36
2022-12-28T06:49:06.510Z,63.21
2022-12-28T06:51:36.434Z,63.55
2022-12-28T06:54:04.035Z,63.67
2022-12-28T06:56:33.201Z,63.46
2022-12-28T06:59:03.642Z,63.57
2022-12-28T07:01:35.514Z,63.14
2022-12-28T07:04:03.564Z,63.10
2022-12-28T07:06:33.800Z,63.08
2022-12-28T07:09:02.352Z,63.50
2022-12-28T07:11:29.803Z,63.71
2022-12-28T07:13:57.283Z,62.92
2022-12-28T07:16:25.895Z,63.25
2022-12-28T07:18:53.281Z,63.35
2022-12-28T07:21:25.588Z,63.41
2022-12-28T07:23:53.795Z,63.20
2022-12-28T07:26:22.547Z,63.14
2022-12-28T07:28:51.564Z,62.88
2022-12-28T07:31:20.848Z,62.57
2022-12-28T07:33:48.547Z,62.73
2022-12-28T07:36:17.570Z,62.88
2022-12-28T07:38:45.256Z,62.65
2022-12-28T07:41:13.774Z,62.77
2022-12-28T07:43:41.132Z,62.36
2022-12-28T07:46:13.235Z,62.85
2022-12-28T07:48:41.163Z,62.56
2022-12-28T07:51:18.963Z,62.48
2022-12-28T07:53:47.941Z,62.57
2022-12-28T07:56:15.714Z,61.98
2022-12-28T08:01:11.172Z,61.92
2022-12-28T08:03:38.950Z,61.77
2022-12-28T08:06:19.366Z,61.77
2022-12-28T08:08:48.134Z,61.79
2022-12-28T08:11:17.544Z,61.50
2022-12-28T08:13:46.309Z,61.28
2022-12-28T08:16:15.071Z,61.36
2022-12-28T08:18:42.477Z,61.23
2022-12-28T08:21:20.137Z,61.02
2022-12-28T08:23:48.030Z,60.89
2022-12-28T08:26:16.393Z,60.44
2022-12-28T08:28:44.398Z,60.31
2022-12-28T08:31:19.925Z,60.50
2022-12-28T08:33:47.775Z,60.34
2022-12-28T08:36:15.396Z,60.02
2022-12-28T08:38:43.441Z,59.87
2022-12-28T08:41:18.808Z,59.71
2022-12-28T08:43:46.512Z,59.43
2022-12-28T08:46:19.299Z,60.65
2022-12-28T08:48:47.615Z,60.20
2022-12-28T08:51:16.831Z,61.27
2022-12-28T08:53:44.228Z,60.74
2022-12-28T08:56:17.022Z,60.06
2022-12-28T08:58:44.890Z,61.11
2022-12-28T09:01:35.924Z,61.54
2022-12-28T09:04:07.802Z,61.81
2022-12-28T09:06:36.934Z,64.53
2022-12-28T09:09:08.289Z,61.38
2022-12-28T09:11:36.382Z,60.25
2022-12-28T09:14:04.463Z,59.46
2022-12-28T09:16:31.895Z,58.52
2022-12-28T09:19:01.283Z,57.87
2022-12-28T09:21:33.470Z,57.33
2022-12-28T09:24:01.085Z,56.62
2022-12-28T09:26:31.293Z,54.94
2022-12-28T09:29:00.136Z,54.06
2022-12-28T09:31:29.376Z,53.73
2022-12-28T09:36:48.272Z,52.81
2022-12-28T09:39:17.743Z,52.61
2022-12-28T09:41:48.550Z,52.59
2022-12-28T09:44:56.172Z,52.29
2022-12-28T09:47:49.819Z,54.11
2022-12-28T09:50:17.486Z,54.54
2022-12-28T09:52:50.032Z,56.24
2022-12-28T09:55:18.482Z,55.39
2022-12-28T09:57:49.037Z,55.54
2022-12-28T10:00:18.591Z,57.43
2022-12-28T10:02:50.038Z,55.54
2022-12-28T10:05:17.620Z,55.27
2022-12-28T10:07:44.965Z,54.27
2022-12-28T10:10:17.535Z,53.77
2022-12-28T10:12:45.471Z,53.80
2022-12-28T10:15:16.305Z,53.02
2022-12-28T10:17:43.682Z,53.11
2022-12-28T10:20:15.676Z,51.92
2022-12-28T10:22:49.718Z,51.47
2022-12-28T10:25:19.684Z,50.66
2022-12-28T10:27:47.458Z,50.65
2022-12-28T10:30:26.991Z,50.67
2022-12-28T10:33:02.134Z,50.17
2022-12-28T10:35:43.144Z,49.63
2022-12-28T10:38:26.040Z,49.62
2022-12-28T10:41:06.290Z,48.76
2022-12-28T10:43:39.051Z,48.75
2022-12-28T10:46:07.473Z,48.04
2022-12-28T10:48:38.344Z,47.78
2022-12-28T10:51:19.802Z,47.49
2022-12-28T10:53:49.280Z,47.68
2022-12-28T10:56:24.005Z,47.07
2022-12-28T10:58:56.063Z,47.04
2022-12-28T11:01:26.269Z,47.04
2022-12-28T11:03:56.716Z,46.25
2022-12-28T11:06:27.526Z,46.79
2022-12-28T11:09:24.764Z,47.30
2022-12-28T11:11:53.781Z,46.80
2022-12-28T11:14:36.938Z,46.58
2022-12-28T11:17:23.585Z,45.98
2022-12-28T11:19:52.936Z,46.44
2022-12-28T11:22:25.113Z,46.50
2022-12-28T11:24:52.766Z,48.13
2022-12-28T11:27:21.446Z,47.83
2022-12-28T11:29:50.503Z,47.05
2022-12-28T11:32:28.178Z,46.72
2022-12-28T11:34:55.659Z,47.22
2022-12-28T11:37:23.286Z,47.85
2022-12-28T11:39:51.794Z,47.96
2022-12-28T11:42:39.429Z,47.45
2022-12-28T11:45:17.119Z,47.75
2022-12-28T11:47:45.732Z,48.16
2022-12-28T11:50:38.233Z,47.72
2022-12-28T11:53:42.658Z,47.95
2022-12-28T11:56:17.262Z,48.31
2022-12-28T11:58:46.604Z,48.85
2022-12-28T12:01:41.099Z,48.89
2022-12-28T12:04:16.809Z,49.70
2022-12-28T12:06:44.150Z,48.55
2022-12-28T12:09:20.835Z,50.06
2022-12-28T12:11:48.991Z,49.16
2022-12-28T12:14:17.831Z,49.29
2022-12-28T12:17:03.339Z,49.35
2022-12-28T12:19:33.297Z,49.32
2022-12-28T12:22:06.940Z,49.31
2022-12-28T12:24:43.253Z,49.41
2022-12-28T12:27:15.729Z,49.43
2022-12-28T12:29:51.294Z,48.98
2022-12-28T12:32:26.747Z,49.40
2022-12-28T12:35:04.342Z,48.81
2022-12-28T12:37:56.854Z,48.46
2022-12-28T12:40:46.246Z,48.95
2022-12-28T12:43:19.390Z,49.52
2022-12-28T12:45:52.946Z,48.87
2022-12-28T12:48:26.252Z,48.90
2022-12-28T12:51:11.729Z,48.76
2022-12-28T12:53:58.395Z,48.76
2022-12-28T12:56:35.543Z,48.23
2022-12-28T12:59:21.761Z,48.00
2022-12-28T13:01:54.116Z,47.34
2022-12-28T13:04:26.329Z,48.16
2022-12-28T13:06:57.495Z,47.42
2022-12-28T13:09:25.992Z,47.22
2022-12-28T13:11:53.723Z,47.06
2022-12-28T13:14:22.312Z,46.76
2022-12-28T13:16:56.974Z,47.24
2022-12-28T13:19:26.267Z,47.25
2022-12-28T13:21:53.798Z,47.08
2022-12-28T13:24:31.824Z,47.22
2022-12-28T13:26:59.689Z,48.78
2022-12-28T13:29:36.063Z,47.90
2022-12-28T13:32:03.557Z,48.53
2022-12-28T13:34:35.062Z,47.88
2022-12-28T13:37:06.145Z,47.55
2022-12-28T13:39:40.018Z,47.69
2022-12-28T13:42:16.295Z,47.71
2022-12-28T13:44:48.201Z,47.78
2022-12-28T13:47:28.503Z,47.95
2022-12-28T13:50:06.309Z,48.32
2022-12-28T13:52:36.887Z,48.29
2022-12-28T13:55:15.992Z,48.20
2022-12-28T13:57:50.122Z,48.44
2022-12-28T14:00:20.992Z,47.89
2022-12-28T14:02:49.745Z,47.75
2022-12-28T14:05:22.779Z,47.97
2022-12-28T14:07:50.647Z,47.42
2022-12-28T14:10:18.305Z,47.31
2022-12-28T14:12:45.737Z,47.36
2022-12-28T14:15:13.556Z,47.17
2022-12-28T14:17:40.885Z,47.41
2022-12-28T14:20:09.151Z,48.10
2022-12-28T14:22:37.844Z,49.21
2022-12-28T14:25:10.117Z,48.39
2022-12-28T14:27:45.997Z,49.19
2022-12-28T14:30:31.082Z,49.34
2022-12-28T14:32:59.759Z,50.42
2022-12-28T14:35:27.497Z,49.88
2022-12-28T14:37:56.593Z,49.79
2022-12-28T14:40:32.589Z,49.48
2022-12-28T14:43:22.697Z,50.33
2022-12-28T14:46:04.909Z,50.61
2022-12-28T14:48:40.478Z,50.25
2022-12-28T14:54:17.520Z,50.85
2022-12-28T14:56:51.678Z,50.74
2022-12-28T14:59:27.807Z,51.27
2022-12-28T15:00:16.329Z,51.08
2022-12-28T15:01:55.587Z,51.45
2022-12-28T15:04:28.495Z,51.42
2022-12-28T15:06:56.252Z,52.06
2022-12-28T15:09:23.636Z,51.66
2022-12-28T15:12:09.486Z,51.84
2022-12-28T15:14:37.369Z,51.97
2022-12-28T15:17:04.790Z,52.23
2022-12-28T15:19:32.267Z,52.54
2022-12-28T15:21:59.883Z,52.79
2022-12-28T15:24:33.522Z,53.13
2022-12-28T15:27:02.785Z,53.42
2022-12-28T15:32:17.722Z,54.17
2022-12-28T15:34:45.285Z,54.67
2022-12-28T15:37:12.655Z,55.46
2022-12-28T15:39:40.426Z,56.00
2022-12-28T15:42:07.915Z,55.58
2022-12-28T15:44:35.300Z,55.87
2022-12-28T15:47:03.015Z,56.19
2022-12-28T15:49:30.419Z,56.51
2022-12-28T15:51:57.942Z,56.53
2022-12-28T15:54:25.605Z,56.86
2022-12-28T15:56:53.750Z,57.25
2022-12-28T15:59:21.117Z,57.21
2022-12-28T16:01:48.961Z,57.37
2022-12-28T16:04:16.963Z,57.54
2022-12-28T16:06:45.336Z,57.59
2022-12-28T16:09:13.450Z,57.46
2022-12-28T16:11:41.373Z,57.58
2022-12-28T16:14:13.079Z,57.00
2022-12-28T16:16:40.832Z,57.45
2022-12-28T16:19:09.029Z,57.42
2022-12-28T16:21:36.432Z,57.62
2022-12-28T16:24:04.164Z,57.26
2022-12-28T16:26:31.628Z,56.76
2022-12-28T16:29:00.138Z,56.59
2022-12-28T16:31:34.884Z,56.69
2022-12-28T16:34:05.976Z,56.58
2022-12-28T16:36:33.738Z,56.19
2022-12-28T16:39:03.034Z,55.77
2022-12-28T16:41:36.676Z,56.12
2022-12-28T16:44:12.067Z,55.21
2022-12-28T16:46:39.442Z,55.54
2022-12-28T16:49:07.117Z,55.89
2022-12-28T16:51:34.539Z,56.03
2022-12-28T16:54:01.930Z,55.49
2022-12-28T16:56:29.556Z,55.04
2022-12-28T16:58:57.737Z,54.85
2022-12-28T17:01:25.252Z,54.94
2022-12-28T17:03:54.515Z,55.22
2022-12-28T17:06:23.623Z,55.44
2022-12-28T17:08:51.029Z,55.90
2022-12-28T17:11:19.260Z,55.59
2022-12-28T17:13:46.748Z,55.69
2022-12-28T17:16:14.153Z,55.68
2022-12-28T17:18:41.767Z,55.93
2022-12-28T17:21:10.550Z,56.42
2022-12-28T17:23:39.256Z,56.33
2022-12-28T17:26:07.365Z,56.42
2022-12-28T17:28:34.759Z,57.00
2022-12-28T17:31:09.990Z,57.01
2022-12-28T17:33:39.945Z,57.22
2022-12-28T17:36:08.520Z,57.25
2022-12-28T17:38:36.010Z,57.07
2022-12-28T17:41:08.629Z,57.49
2022-12-28T17:43:36.011Z,57.66
2022-12-28T17:46:03.715Z,58.00
2022-12-28T17:48:31.153Z,58.07
2022-12-28T17:51:02.802Z,58.34
2022-12-28T17:53:33.957Z,58.41
2022-12-28T17:56:02.562Z,58.87
2022-12-28T17:58:30.302Z,59.07
2022-12-28T18:00:58.057Z,59.30
2022-12-28T18:03:31.554Z,59.33
2022-12-28T18:06:00.920Z,59.43
2022-12-28T18:08:28.682Z,59.77
2022-12-28T18:10:56.180Z,59.62
2022-12-28T18:13:23.627Z,59.81
2022-12-28T18:15:51.388Z,59.73
2022-12-28T18:18:18.766Z,59.86
2022-12-28T18:20:47.114Z,59.95
2022-12-28T18:23:14.759Z,60.22
2022-12-28T18:25:42.131Z,60.49
2022-12-28T18:28:09.783Z,60.67
2022-12-28T18:30:39.993Z,60.82
2022-12-28T18:33:07.482Z,60.63
2022-12-28T18:35:34.813Z,60.73
2022-12-28T18:38:02.476Z,60.89
2022-12-28T18:40:29.877Z,61.12
2022-12-28T18:42:58.288Z,61.43
2022-12-28T18:45:26.100Z,61.00
2022-12-28T18:47:53.493Z,61.13
2022-12-28T18:50:20.897Z,61.54
2022-12-28T18:52:48.501Z,61.62
2022-12-28T18:55:15.916Z,61.62
2022-12-28T18:57:43.358Z,61.10
2022-12-28T19:00:11.459Z,61.56
2022-12-28T19:02:39.010Z,61.74
2022-12-28T19:05:06.617Z,62.27
2022-12-28T19:07:34.233Z,62.52
2022-12-28T19:10:15.798Z,62.30
2022-12-28T19:12:44.189Z,62.33
2022-12-28T19:15:12.339Z,62.44
2022-12-28T19:17:39.752Z,62.81
2022-12-28T19:20:07.810Z,62.73
2022-12-28T19:22:35.161Z,62.57
2022-12-28T19:25:02.707Z,62.68
2022-12-28T19:27:30.374Z,62.42
2022-12-28T19:29:57.743Z,62.74
2022-12-28T19:32:25.196Z,62.28
2022-12-28T19:34:53.603Z,62.58
2022-12-28T19:37:20.935Z,62.88
2022-12-28T19:39:51.196Z,63.12
2022-12-28T19:42:22.383Z,62.07
2022-12-28T19:44:49.727Z,62.95
2022-12-28T19:47:17.111Z,63.15
2022-12-28T19:49:44.690Z,63.27
2022-12-28T19:52:12.066Z,63.33
2022-12-28T19:54:39.678Z,62.85
2022-12-28T19:57:07.304Z,63.00
2022-12-28T19:59:34.846Z,63.44
2022-12-28T20:02:02.434Z,63.67
2022-12-28T20:04:30.123Z,64.02
2022-12-28T20:06:57.480Z,64.34
2022-12-28T20:09:24.817Z,64.19
2022-12-28T20:11:52.460Z,63.94
2022-12-28T20:14:24.943Z,64.23
2022-12-28T20:16:53.066Z,64.22
2022-12-28T20:19:20.519Z,64.04
2022-12-28T20:21:49.406Z,64.58
2022-12-28T20:24:17.998Z,64.54
2022-12-28T20:26:45.393Z,64.48
2022-12-28T20:29:16.245Z,63.22
2022-12-28T20:31:44.514Z,64.12
2022-12-28T20:34:11.939Z,64.46
2022-12-28T20:36:39.362Z,64.64
2022-12-28T20:39:07.016Z,64.64
2022-12-28T20:41:53.274Z,64.61
2022-12-28T20:44:26.246Z,64.56
2022-12-28T20:46:54.590Z,64.96
2022-12-28T20:49:23.116Z,65.23
2022-12-28T20:51:50.723Z,64.75
2022-12-28T20:54:19.528Z,63.57
2022-12-28T20:56:53.906Z,64.57
2022-12-28T20:59:22.032Z,64.86
2022-12-28T21:01:49.748Z,64.74
2022-12-28T21:04:17.204Z,64.84
2022-12-28T21:06:45.830Z,65.03
2022-12-28T21:09:13.640Z,66.07
2022-12-28T21:11:41.095Z,65.44
2022-12-28T21:14:08.476Z,65.26
2022-12-28T21:16:36.188Z,65.21
2022-12-28T21:19:03.833Z,65.58
2022-12-28T21:21:31.241Z,65.20
2022-12-28T21:23:58.889Z,66.20
2022-12-28T21:26:26.257Z,65.30
2022-12-28T21:28:53.616Z,65.13
2022-12-28T21:31:21.293Z,64.80
2022-12-28T21:33:48.679Z,64.93
2022-12-28T21:36:17.806Z,64.28
2022-12-28T21:38:46.507Z,64.57
2022-12-28T21:41:37.885Z,64.43
2022-12-28T21:44:06.417Z,64.58
2022-12-28T21:46:34.779Z,64.88
2022-12-28T21:49:04.927Z,64.81
2022-12-28T21:51:34.898Z,64.59
2022-12-28T21:54:06.952Z,64.86
2022-12-28T21:56:35.105Z,65.27
2022-12-28T21:59:02.499Z,64.85
2022-12-28T22:01:48.552Z,64.90
2022-12-28T22:04:35.526Z,65.03
2022-12-28T22:07:03.372Z,64.87
2022-12-28T22:09:49.893Z,64.88
2022-12-28T22:12:35.501Z,64.69
2022-12-28T22:15:24.607Z,64.20
2022-12-28T22:17:54.087Z,64.48
2022-12-28T22:20:22.097Z,64.73
2022-12-28T22:22:49.462Z,64.82
2022-12-28T22:25:16.923Z,64.78
2022-12-28T22:27:44.547Z,65.08
2022-12-28T22:30:12.255Z,65.30
2022-12-28T22:32:39.709Z,65.01
2022-12-28T22:35:08.256Z,64.85
2022-12-28T22:37:35.791Z,64.78
2022-12-28T22:40:04.328Z,64.42
2022-12-28T22:42:31.976Z,64.56
2022-12-28T22:44:59.301Z,64.74
2022-12-28T22:47:28.058Z,64.55
2022-12-28T22:49:55.792Z,64.06
2022-12-28T22:52:23.158Z,63.84
2022-12-28T22:54:51.155Z,64.15
2022-12-28T22:57:18.783Z,64.85
2022-12-28T22:59:46.107Z,64.67
2022-12-28T23:02:13.804Z,65.49
2022-12-28T23:04:41.566Z,64.37
2022-12-28T23:07:08.955Z,64.72
2022-12-28T23:09:36.699Z,64.38
2022-12-28T23:12:04.349Z,64.39
2022-12-28T23:14:50.343Z,65.07
2022-12-28T23:17:17.964Z,64.86
2022-12-28T23:20:04.204Z,64.73
2022-12-28T23:22:52.523Z,64.54
2022-12-28T23:25:40.218Z,65.21
2022-12-28T23:28:10.337Z,64.89
2022-12-28T23:30:38.534Z,65.15
2022-12-28T23:33:05.979Z,65.09
2022-12-28T23:35:33.608Z,64.96
2022-12-28T23:38:00.950Z,65.05
2022-12-28T23:40:28.344Z,64.96
2022-12-28T23:42:56.020Z,65.12
2022-12-28T23:45:23.492Z,64.80
2022-12-28T23:47:52.172Z,64.94
2022-12-28T23:50:19.796Z,64.62
2022-12-28T23:52:47.250Z,64.69
2022-12-28T23:55:14.659Z,64.87
2022-12-28T23:57:42.289Z,65.41
